createdAt,value
2018-11-29T00:08:05.018Z,84.45
2018-11-29T00:18:23.214Z,85.28
2018-11-29T00:28:41.848Z,84.97
2018-11-29T00:38:59.747Z,85.14
2018-11-29T00:49:20.670Z,84.99
2018-11-29T00:59:39.379Z,84.81
2018-11-29T01:09:58.014Z,85.03
2018-11-29T01:20:17.365Z,85.31
2018-11-29T01:30:35.937Z,84.44
2018-11-29T01:40:53.992Z,84.17
2018-11-29T01:51:12.305Z,85.30
2018-11-29T02:01:31.850Z,84.94
2018-11-29T02:11:49.627Z,84.63
2018-11-29T02:22:08.149Z,83.89
2018-11-29T02:32:27.329Z,84.62
2018-11-29T02:42:46.163Z,85.02
2018-11-29T02:53:04.962Z,85.19
2018-11-29T03:03:23.198Z,83.43
2018-11-29T03:13:41.733Z,85.23
2018-11-29T03:24:00.822Z,85.29
2018-11-29T03:34:20.294Z,82.75
2018-11-29T03:44:38.786Z,83.76
2018-11-29T03:54:58.115Z,84.16
2018-11-29T04:05:16.030Z,84.43
2018-11-29T04:15:34.478Z,84.65
2018-11-29T04:25:52.687Z,85.04
2018-11-29T04:36:11.280Z,83.59
2018-11-29T04:46:44.438Z,83.54
2018-11-29T04:57:03.141Z,84.14
2018-11-29T05:07:25.869Z,83.59
2018-11-29T05:17:45.267Z,83.07
2018-11-29T05:28:03.775Z,83.79
2018-11-29T05:38:22.520Z,83.07
2018-11-29T05:48:41.097Z,83.62
2018-11-29T05:58:59.824Z,84.02
2018-11-29T06:09:19.242Z,83.35
2018-11-29T06:19:37.691Z,83.63
2018-11-29T06:29:56.767Z,83.98
2018-11-29T06:40:16.778Z,83.22
2018-11-29T06:50:35.476Z,84.09
2018-11-29T07:00:54.034Z,83.55
2018-11-29T07:11:12.337Z,83.37
2018-11-29T07:21:50.494Z,82.62
2018-11-29T07:32:11.747Z,84.12
2018-11-29T07:42:31.273Z,84.34
2018-11-29T07:52:50.363Z,84.02
2018-11-29T08:03:08.595Z,83.13
2018-11-29T08:13:26.932Z,82.27
2018-11-29T08:23:44.966Z,81.88
2018-11-29T08:34:04.402Z,81.17
2018-11-29T08:44:22.848Z,79.95
2018-11-29T08:54:42.367Z,80.05
2018-11-29T09:05:01.014Z,78.81
2018-11-29T09:15:19.401Z,77.59
2018-11-29T09:25:38.501Z,77.09
2018-11-29T09:35:57.449Z,76.09
2018-11-29T09:46:15.934Z,74.74
2018-11-29T09:56:34.638Z,74.45
2018-11-29T10:06:54.375Z,73.03
2018-11-29T10:17:13.400Z,71.46
2018-11-29T10:27:32.472Z,68.67
2018-11-29T10:37:51.184Z,68.34
2018-11-29T10:48:18.116Z,67.35
2018-11-29T10:58:37.222Z,64.90
2018-11-29T11:08:56.534Z,56.22
2018-11-29T11:19:15.296Z,54.47
2018-11-29T11:29:34.514Z,59.34
2018-11-29T11:39:52.709Z,59.93
2018-11-29T11:50:30.876Z,59.22
2018-11-29T12:00:49.456Z,61.47
2018-11-29T12:11:08.681Z,63.84
2018-11-29T12:21:28.303Z,63.68
2018-11-29T12:31:46.600Z,63.38
2018-11-29T12:42:07.482Z,63.44
2018-11-29T12:52:26.429Z,60.97
2018-11-29T13:03:00.830Z,60.46
2018-11-29T13:13:18.858Z,61.17
2018-11-29T13:23:37.257Z,59.45
2018-11-29T13:33:56.120Z,60.24
2018-11-29T13:44:15.091Z,62.83
2018-11-29T13:54:33.466Z,64.75
2018-11-29T14:04:51.955Z,67.27
2018-11-29T14:15:21.485Z,69.78
2018-11-29T14:25:40.728Z,71.44
2018-11-29T14:36:01.548Z,72.98
2018-11-29T14:46:19.975Z,73.96
2018-11-29T14:56:38.487Z,76.07
2018-11-29T15:06:58.243Z,77.11
2018-11-29T15:17:17.750Z,78.76
2018-11-29T15:27:36.767Z,79.81
2018-11-29T15:37:55.612Z,80.38
2018-11-29T15:48:14.556Z,80.64
2018-11-29T15:58:34.864Z,81.26
2018-11-29T16:08:52.720Z,81.96
2018-11-29T16:19:12.431Z,82.35
2018-11-29T16:29:31.339Z,83.25
2018-11-29T16:39:51.441Z,82.96
2018-11-29T16:50:13.948Z,83.16
2018-11-29T17:00:32.157Z,82.45
2018-11-29T17:10:51.259Z,83.57
2018-11-29T17:21:11.025Z,84.22
2018-11-29T17:31:29.784Z,84.52
2018-11-29T17:41:50.337Z,85.11
2018-11-29T17:52:11.338Z,84.71
2018-11-29T18:02:31.264Z,84.88
2018-11-29T18:13:00.503Z,84.52
2018-11-29T18:23:19.070Z,84.55
2018-11-29T18:33:38.220Z,83.94
2018-11-29T18:43:59.069Z,84.25
2018-11-29T18:54:18.458Z,83.92
2018-11-29T19:04:38.559Z,83.90
2018-11-29T19:14:58.102Z,83.81
2018-11-29T19:25:22.070Z,83.96
2018-11-29T19:35:42.066Z,83.46
2018-11-29T19:46:04.248Z,84.02
2018-11-29T19:57:07.275Z,83.38
2018-11-29T20:07:32.073Z,83.93
2018-11-29T20:17:51.527Z,83.64
2018-11-29T20:28:11.402Z,84.31
2018-11-29T20:38:31.119Z,84.83
2018-11-29T20:48:54.095Z,84.24
2018-11-29T20:59:15.061Z,84.35
2018-11-29T22:19:09.106Z,84.35
2018-11-29T22:41:43.778Z,83.99
